Time;durP1;ratioP1;P1;durP2;ratioP2;P2;SDS_P1;SDS_P2;PMS_P1;PMS_P2;Temp;Humidity;BMP_temperature;BMP_pressure;BME280_temperature;BME280_humidity;BME280_pressure;Samples;Min_cycle;Max_cycle;Signal;HPM_P1;HPM_P2
2021/10/07 00:02:08;;;;;;;4.05;1.17;;;;;;;9.90;100.00;98050.94;5079367;28;20033;-83
2021/10/07 00:04:34;;;;;;;6.35;1.40;;;;;;;9.74;100.00;98032.28;5077182;28;20021;-83
2021/10/07 00:06:59;;;;;;;5.18;1.30;;;;;;;9.82;100.00;98046.13;5079093;28;20013;-79
2021/10/07 00:09:26;;;;;;;3.50;1.17;;;;;;;9.88;100.00;98046.88;5079483;28;20013;-83
2021/10/07 00:11:52;;;;;;;4.13;1.40;;;;;;;9.86;100.00;98046.34;5073773;28;20032;-84
2021/10/07 00:14:17;;;;;;;4.22;1.48;;;;;;;9.82;100.00;98035.19;5078360;28;20033;-81
2021/10/07 00:16:43;;;;;;;3.22;1.42;;;;;;;9.85;100.00;98044.72;5079007;28;20017;-84
2021/10/07 00:19:08;;;;;;;4.82;1.67;;;;;;;9.88;100.00;98044.13;5079049;28;20038;-84
2021/10/07 00:21:34;;;;;;;3.38;1.85;;;;;;;9.90;100.00;98041.94;5079726;28;20063;-80
2021/10/07 00:24:09;;;;;;;5.20;1.70;;;;;;;9.89;100.00;98043.03;5080002;28;20025;-82
2021/10/07 00:26:34;;;;;;;3.25;1.80;;;;;;;9.88;100.00;98041.41;5079769;28;20024;-79
2021/10/07 00:29:14;;;;;;;3.47;1.70;;;;;;;9.94;100.00;98049.25;5079385;28;20021;-83
2021/10/07 00:31:41;;;;;;;6.25;1.77;;;;;;;9.96;100.00;98046.25;5079584;28;20036;-83
2021/10/07 00:34:25;;;;;;;3.28;1.75;;;;;;;10.00;100.00;98048.09;5079485;28;20017;-80
2021/10/07 00:39:22;;;;;;;3.17;1.60;;;;;;;9.89;100.00;98037.59;5079624;28;20016;-79
2021/10/07 00:41:47;;;;;;;3.65;2.00;;;;;;;9.84;100.00;98034.88;5079178;28;20005;-82
2021/10/07 00:44:13;;;;;;;5.50;2.08;;;;;;;9.83;100.00;98019.63;5078878;28;20057;-80
2021/10/07 00:46:46;;;;;;;5.55;1.83;;;;;;;9.92;100.00;98046.03;5079090;28;20021;-80
2021/10/07 00:49:11;;;;;;;3.55;1.80;;;;;;;9.83;100.00;98036.00;5078427;28;20040;-81
2021/10/07 00:51:37;;;;;;;7.60;2.42;;;;;;;9.86;100.00;98024.50;5079095;28;20036;-79
2021/10/07 00:54:03;;;;;;;3.83;1.90;;;;;;;9.87;100.00;98017.91;5078732;28;20021;-79
2021/10/07 00:56:28;;;;;;;5.38;2.45;;;;;;;9.87;100.00;98020.66;5078414;28;20037;-83
2021/10/07 00:58:54;;;;;;;3.63;2.00;;;;;;;9.95;100.00;98033.69;5078559;28;20071;-79
2021/10/07 01:01:19;;;;;;;5.20;1.83;;;;;;;9.79;100.00;98002.16;5079091;28;20033;-78
2021/10/07 01:03:44;;;;;;;3.50;1.90;;;;;;;9.71;100.00;98017.25;5078512;28;20021;-80
2021/10/07 01:06:10;;;;;;;5.18;2.28;;;;;;;9.71;100.00;98019.97;5078818;28;20037;-83
2021/10/07 01:08:35;;;;;;;2.60;1.55;;;;;;;9.84;100.00;98022.03;5078319;28;20009;-79
2021/10/07 01:11:01;;;;;;;4.25;1.90;;;;;;;9.75;100.00;98007.38;5063638;28;20520;-79
2021/10/07 01:13:27;;;;;;;6.60;1.90;;;;;;;9.88;100.00;98027.75;5054780;28;20032;-79
2021/10/07 01:15:52;;;;;;;4.43;1.60;;;;;;;9.87;100.00;98026.94;5048514;28;20060;-80
2021/10/07 01:18:18;;;;;;;2.95;1.80;;;;;;;9.80;100.00;98012.81;5013104;28;20474;-79
2021/10/07 01:20:43;;;;;;;3.97;1.80;;;;;;;9.91;100.00;98017.06;5014315;28;20042;-79
2021/10/07 01:23:08;;;;;;;4.35;1.90;;;;;;;9.89;100.00;98023.91;5013675;28;20058;-79
2021/10/07 01:25:34;;;;;;;4.53;1.90;;;;;;;9.88;100.00;98027.75;5012371;28;20033;-79
2021/10/07 01:28:00;;;;;;;2.67;1.75;;;;;;;9.86;100.00;98016.31;5013044;28;20462;-77
2021/10/07 01:30:26;;;;;;;3.78;2.05;;;;;;;9.82;100.00;98013.34;5014667;28;20112;-78
2021/10/07 01:32:56;;;;;;;3.75;1.77;;;;;;;9.82;100.00;98017.97;5033447;28;20076;-80
2021/10/07 01:35:22;;;;;;;5.63;2.00;;;;;;;9.80;100.00;98001.88;5033971;28;20112;-79
2021/10/07 01:37:47;;;;;;;4.15;1.92;;;;;;;9.80;100.00;98009.25;5032777;28;20116;-79
2021/10/07 01:40:13;;;;;;;4.68;1.80;;;;;;;9.75;100.00;98001.09;5033681;28;20560;-78
2021/10/07 01:42:41;;;;;;;5.35;1.75;;;;;;;9.82;100.00;97996.13;5033337;28;20038;-78
2021/10/07 01:45:09;;;;;;;4.45;1.70;;;;;;;9.89;100.00;98002.88;5032625;28;21059;-79
2021/10/07 01:47:34;;;;;;;4.85;1.70;;;;;;;9.97;100.00;98012.34;5032292;28;20038;-79
2021/10/07 01:50:00;;;;;;;3.47;1.90;;;;;;;10.02;100.00;98009.56;5032096;28;20440;-80
2021/10/07 01:52:25;;;;;;;3.53;1.85;;;;;;;9.97;100.00;98009.63;5032430;28;20021;-80
2021/10/07 01:54:51;;;;;;;4.20;1.92;;;;;;;9.86;100.00;97991.72;5036216;28;20049;-80
2021/10/07 01:57:16;;;;;;;3.55;1.77;;;;;;;9.94;100.00;98004.72;5032333;28;20029;-78
2021/10/07 01:59:42;;;;;;;3.30;1.60;;;;;;;9.92;100.00;98006.94;5031983;28;20470;-78
2021/10/07 02:02:07;;;;;;;3.75;1.67;;;;;;;9.99;100.00;98012.88;5032439;28;20029;-81
2021/10/07 02:04:32;;;;;;;3.47;1.63;;;;;;;9.99;100.00;98002.75;5031011;28;20051;-79
2021/10/07 02:06:58;;;;;;;3.58;1.30;;;;;;;9.98;100.00;98016.72;5032015;28;20044;-80
2021/10/07 02:09:23;;;;;;;3.30;1.35;;;;;;;9.89;100.00;98013.00;5033077;28;20021;-82
2021/10/07 02:11:49;;;;;;;8.15;1.60;;;;;;;9.76;100.00;98002.75;5035117;28;20474;-79
2021/10/07 02:14:14;;;;;;;5.72;1.92;;;;;;;9.93;100.00;98005.84;5032762;28;20497;-81
2021/10/07 02:16:40;;;;;;;4.22;1.88;;;;;;;9.79;100.00;98008.44;5032953;28;20030;-79
2021/10/07 02:19:05;;;;;;;5.00;1.90;;;;;;;9.85;100.00;98017.41;5035467;28;20449;-81
2021/10/07 02:21:31;;;;;;;4.88;2.33;;;;;;;9.77;100.00;98009.84;5038004;28;20037;-81
2021/10/07 02:23:57;;;;;;;3.72;2.00;;;;;;;9.84;100.00;98005.66;5041351;28;20115;-81
2021/10/07 02:26:22;;;;;;;3.20;1.85;;;;;;;9.89;100.00;98013.00;5044214;28;20379;-83
2021/10/07 02:28:48;;;;;;;3.40;1.92;;;;;;;9.96;100.00;98013.47;5043440;28;20030;-82
2021/10/07 02:31:13;;;;;;;4.00;1.85;;;;;;;9.93;100.00;98003.91;5032933;28;20483;-79
2021/10/07 02:33:39;;;;;;;4.45;2.20;;;;;;;9.94;100.00;98007.47;5032800;28;20088;-79
2021/10/07 02:36:04;;;;;;;3.90;1.80;;;;;;;9.90;100.00;97999.03;5032906;28;20056;-80
2021/10/07 02:38:30;;;;;;;3.80;2.20;;;;;;;9.90;100.00;98004.50;5019774;28;20107;-79
2021/10/07 02:40:56;;;;;;;4.43;2.55;;;;;;;9.84;100.00;98002.91;5043339;28;20383;-79
2021/10/07 02:43:21;;;;;;;6.40;2.90;;;;;;;9.86;100.00;97994.44;5011537;28;20430;-79
2021/10/07 02:45:47;;;;;;;5.07;3.13;;;;;;;9.85;100.00;97999.09;5012486;28;20493;-79
2021/10/07 02:48:12;;;;;;;6.32;3.00;;;;;;;9.87;100.00;97998.78;5010271;28;20034;-79
2021/10/07 02:50:38;;;;;;;5.82;2.75;;;;;;;9.76;100.00;97991.81;5011944;28;20530;-79
2021/10/07 02:53:04;;;;;;;4.30;2.65;;;;;;;9.68;100.00;98005.00;5011496;28;20064;-78
2021/10/07 02:55:29;;;;;;;3.85;2.50;;;;;;;9.57;100.00;97999.94;5011695;28;20057;-77
2021/10/07 02:57:54;;;;;;;5.07;2.90;;;;;;;9.65;100.00;98002.03;5011832;28;20442;-79
2021/10/07 03:00:20;;;;;;;6.63;2.50;;;;;;;9.67;100.00;98014.31;5011540;28;20537;-79
2021/10/07 03:02:46;;;;;;;6.60;2.90;;;;;;;9.61;100.00;97999.06;5011122;28;20064;-79
2021/10/07 03:05:13;;;;;;;4.88;2.90;;;;;;;9.73;100.00;98014.25;5011056;28;20034;-80
2021/10/07 03:07:39;;;;;;;4.95;3.00;;;;;;;9.63;100.00;98010.50;5011656;28;20034;-79
2021/10/07 03:10:05;;;;;;;4.10;2.67;;;;;;;9.63;100.00;98005.06;5010889;28;20537;-80
2021/10/07 03:12:31;;;;;;;7.22;2.75;;;;;;;9.65;100.00;98008.31;5011430;28;20129;-80
2021/10/07 03:14:56;;;;;;;4.63;2.95;;;;;;;9.75;100.00;98001.09;5010591;28;20052;-79
2021/10/07 03:17:22;;;;;;;5.22;3.10;;;;;;;9.73;100.00;97997.84;5010827;28;20026;-79
2021/10/07 03:19:47;;;;;;;4.25;2.78;;;;;;;9.80;100.00;97992.88;5011587;28;20065;-82
2021/10/07 03:22:15;;;;;;;5.05;2.95;;;;;;;9.76;100.00;98000.00;5012698;28;20049;-81
2021/10/07 03:24:42;;;;;;;4.65;2.80;;;;;;;9.75;100.00;98001.09;5011510;28;20026;-78
2021/10/07 03:27:07;;;;;;;4.88;3.08;;;;;;;9.78;100.00;98004.06;5010849;28;20038;-79
2021/10/07 03:29:33;;;;;;;4.22;2.75;;;;;;;9.78;100.00;98006.00;5010483;28;20088;-79
2021/10/07 03:31:58;;;;;;;7.35;3.53;;;;;;;9.70;100.00;97993.78;5010691;28;20079;-78
2021/10/07 03:34:24;;;;;;;3.85;2.58;;;;;;;9.78;100.00;98003.25;5009400;28;20022;-79
2021/10/07 03:36:49;;;;;;;6.18;3.35;;;;;;;9.77;100.00;98004.38;5010462;28;20032;-78
2021/10/07 03:39:15;;;;;;;4.78;3.50;;;;;;;9.42;100.00;97942.75;5010372;28;20042;-79
2021/10/07 03:41:40;;;;;;;5.38;3.60;;;;;;;9.82;100.00;97994.22;5011085;28;20030;-79
2021/10/07 03:44:06;;;;;;;6.28;3.97;;;;;;;9.85;100.00;98007.28;5011398;28;20101;-79
2021/10/07 03:46:32;;;;;;;5.82;4.22;;;;;;;9.74;100.00;97975.72;5010708;28;20038;-78
2021/10/07 03:48:57;;;;;;;6.07;4.30;;;;;;;9.79;100.00;97988.50;5010680;28;20041;-78
2021/10/07 03:51:23;;;;;;;7.60;4.68;;;;;;;9.71;100.00;97983.69;5010639;28;20034;-79
2021/10/07 03:53:48;;;;;;;8.45;5.45;;;;;;;9.63;100.00;97971.47;5013480;28;20054;-79
2021/10/07 03:56:14;;;;;;;8.25;4.60;;;;;;;9.78;100.00;98000.53;5014422;28;20434;-80
2021/10/07 03:58:39;;;;;;;6.28;4.55;;;;;;;9.81;100.00;97998.03;5013698;28;20379;-78
2021/10/07 04:01:04;;;;;;;7.47;4.15;;;;;;;9.78;100.00;98011.44;5013824;28;20052;-79
2021/10/07 04:03:30;;;;;;;9.57;4.80;;;;;;;9.79;100.00;98013.09;5013302;28;20391;-79
2021/10/07 04:05:56;;;;;;;6.55;4.10;;;;;;;9.81;100.00;98016.34;5013139;28;20034;-78
2021/10/07 04:08:22;;;;;;;6.13;4.03;;;;;;;9.62;100.00;98002.59;5013682;28;20132;-79
2021/10/07 04:10:50;;;;;;;6.45;3.90;;;;;;;9.72;100.00;98012.59;5013730;28;20026;-79
2021/10/07 04:13:20;;;;;;;5.30;3.45;;;;;;;9.68;100.00;98020.56;5013600;28;20025;-79
2021/10/07 04:15:47;;;;;;;6.82;4.15;;;;;;;9.74;100.00;98013.16;5013794;28;20022;-79
2021/10/07 04:18:16;;;;;;;9.98;3.70;;;;;;;9.71;100.00;98006.31;5013937;28;20110;-77
2021/10/07 04:20:44;;;;;;;4.40;2.67;;;;;;;9.68;100.00;98013.19;5013141;28;20142;-78
2021/10/07 04:23:10;;;;;;;4.57;2.78;;;;;;;9.60;100.00;98008.34;5013162;28;20525;-77
2021/10/07 04:25:35;;;;;;;4.85;2.83;;;;;;;9.64;100.00;98009.41;5013830;28;20062;-78
2021/10/07 04:28:04;;;;;;;5.07;3.33;;;;;;;9.71;100.00;98011.00;5011876;28;20033;-78
2021/10/07 04:30:30;;;;;;;4.25;2.63;;;;;;;9.67;100.00;98006.13;5013392;28;20135;-78
2021/10/07 04:32:56;;;;;;;6.45;2.65;;;;;;;9.62;100.00;97992.50;5011791;28;20026;-78
2021/10/07 04:35:21;;;;;;;5.35;3.40;;;;;;;9.81;100.00;98005.41;5013455;28;20058;-79
2021/10/07 04:37:47;;;;;;;4.95;3.10;;;;;;;9.86;100.00;97994.44;5013539;28;20053;-79
2021/10/07 04:40:12;;;;;;;4.90;3.35;;;;;;;9.88;100.00;98000.44;5012442;28;20076;-79
2021/10/07 04:42:38;;;;;;;3.78;2.45;;;;;;;9.82;100.00;97987.94;5011648;28;20113;-78
2021/10/07 04:45:04;;;;;;;4.78;2.95;;;;;;;9.58;100.00;97961.41;5011712;28;20033;-79
2021/10/07 04:47:29;;;;;;;7.15;3.00;;;;;;;9.63;100.00;97987.84;5012900;28;20029;-79
2021/10/07 04:49:55;;;;;;;8.95;3.15;;;;;;;9.56;100.00;97988.19;5013291;28;20026;-78
2021/10/07 04:52:21;;;;;;;11.90;3.90;;;;;;;9.66;100.00;97993.56;5013193;28;20022;-79
2021/10/07 04:54:46;;;;;;;5.07;2.88;;;;;;;9.80;100.00;98004.63;5013037;28;20057;-79
2021/10/07 04:57:12;;;;;;;9.13;3.05;;;;;;;9.80;100.00;97996.44;5013621;28;20026;-80
2021/10/07 04:59:37;;;;;;;5.15;3.35;;;;;;;9.91;100.00;98017.06;5014091;28;20414;-80
2021/10/07 05:02:03;;;;;;;7.78;3.00;;;;;;;9.88;100.00;98011.34;5016118;28;20029;-79
2021/10/07 05:04:28;;;;;;;5.97;3.17;;;;;;;9.89;100.00;98019.28;5056210;28;20493;-82
2021/10/07 05:06:54;;;;;;;11.82;3.13;;;;;;;9.80;100.00;98010.09;5030617;28;20540;-78
2021/10/07 05:09:19;;;;;;;4.43;2.53;;;;;;;9.88;100.00;98016.81;5034316;28;20037;-81
2021/10/07 05:11:45;;;;;;;4.72;1.80;;;;;;;9.81;100.00;98005.41;5033184;28;20029;-77
2021/10/07 05:14:10;;;;;;;4.65;2.20;;;;;;;9.80;100.00;97999.16;5032436;28;20475;-80
2021/10/07 05:16:35;;;;;;;6.25;2.50;;;;;;;9.83;100.00;98003.22;5033378;28;20131;-81
2021/10/07 05:19:01;;;;;;;4.68;2.08;;;;;;;9.92;100.00;98009.69;5034970;28;20061;-80
2021/10/07 05:21:26;;;;;;;4.57;2.42;;;;;;;9.91;100.00;98002.56;5033536;28;20056;-77
2021/10/07 05:23:52;;;;;;;5.88;2.35;;;;;;;9.74;100.00;98007.69;5033600;28;20041;-77
2021/10/07 05:26:17;;;;;;;5.55;2.38;;;;;;;9.74;100.00;98010.41;5032159;28;20078;-76
2021/10/07 05:28:44;;;;;;;7.18;2.38;;;;;;;9.79;100.00;98007.63;5031155;28;20393;-78
2021/10/07 05:31:10;;;;;;;6.07;2.53;;;;;;;9.84;100.00;98007.56;5031350;28;20029;-76
2021/10/07 05:33:35;;;;;;;5.22;2.42;;;;;;;9.83;100.00;98012.25;5031489;28;20029;-76
2021/10/07 05:36:01;;;;;;;6.78;2.22;;;;;;;9.86;100.00;98002.66;5031282;28;20360;-76
2021/10/07 05:38:29;;;;;;;4.30;2.10;;;;;;;9.85;100.00;98011.94;5031309;28;20033;-78
2021/10/07 05:40:54;;;;;;;4.03;2.38;;;;;;;9.91;100.00;98016.25;5031151;28;20032;-76
2021/10/07 05:43:22;;;;;;;5.32;2.42;;;;;;;9.87;100.00;98012.44;5029564;28;20053;-74
2021/10/07 05:45:47;;;;;;;4.80;2.65;;;;;;;9.89;100.00;98022.00;5029784;28;20030;-74
2021/10/07 05:48:13;;;;;;;6.05;2.80;;;;;;;9.97;100.00;98012.34;5031086;28;20040;-75
2021/10/07 05:50:38;;;;;;;8.85;2.50;;;;;;;9.94;100.00;98007.47;5031222;28;20057;-75
2021/10/07 05:53:04;;;;;;;6.60;2.08;;;;;;;9.93;100.00;98011.31;5031612;28;20041;-78
2021/10/07 05:55:29;;;;;;;5.25;2.42;;;;;;;9.98;100.00;98005.78;5032102;28;20018;-75
2021/10/07 05:57:55;;;;;;;5.63;2.42;;;;;;;9.93;100.00;98005.84;5031435;28;20030;-76
2021/10/07 06:00:22;;;;;;;5.88;2.28;;;;;;;9.96;100.00;98006.06;5032294;28;20112;-75
2021/10/07 06:02:48;;;;;;;8.45;2.47;;;;;;;10.14;100.00;98008.09;5030957;28;20124;-75
2021/10/07 06:05:14;;;;;;;4.78;2.78;;;;;;;10.23;100.00;98011.00;5031368;28;20025;-78
2021/10/07 06:07:39;;;;;;;3.35;2.03;;;;;;;10.07;100.00;98010.31;5029609;28;20401;-76
2021/10/07 06:10:06;;;;;;;6.07;2.97;;;;;;;10.05;100.00;98020.75;5030802;28;20033;-78
2021/10/07 06:12:35;;;;;;;6.53;3.17;;;;;;;10.10;100.00;98009.75;5034219;28;20025;-78
2021/10/07 06:15:01;;;;;;;8.60;4.13;;;;;;;10.09;100.00;98015.50;5030246;28;20075;-79
2021/10/07 06:17:27;;;;;;;6.72;4.15;;;;;;;9.97;100.00;97995.94;5030453;28;20030;-77
2021/10/07 06:20:03;;;;;;;5.43;3.67;;;;;;;10.04;100.00;98012.81;5030729;28;20045;-77
2021/10/07 06:22:29;;;;;;;5.18;3.35;;;;;;;10.10;100.00;98017.13;5030639;28;20482;-79
2021/10/07 06:24:54;;;;;;;6.68;3.58;;;;;;;10.02;100.00;98028.69;5029259;28;20028;-75
2021/10/07 06:27:19;;;;;;;8.32;2.90;;;;;;;10.16;100.00;98019.53;5031406;28;20029;-79
2021/10/07 06:29:45;;;;;;;5.45;2.33;;;;;;;10.21;100.00;98024.94;5030741;28;20018;-78
2021/10/07 06:32:10;;;;;;;8.82;2.78;;;;;;;10.30;100.00;98025.13;5030517;28;20889;-78
2021/10/07 06:34:36;;;;;;;6.07;2.35;;;;;;;10.29;100.00;98014.47;5030646;28;20414;-78
2021/10/07 06:37:01;;;;;;;2.75;1.55;;;;;;;10.41;100.00;98023.88;5031304;28;20022;-78
2021/10/07 06:39:27;;;;;;;5.80;1.85;;;;;;;10.48;100.00;98027.09;5030568;28;20025;-78
2021/10/07 06:41:53;;;;;;;3.38;1.85;;;;;;;10.47;100.00;98022.72;5030753;28;20025;-75
2021/10/07 06:44:19;;;;;;;3.25;1.67;;;;;;;10.78;100.00;98025.84;5030003;28;20021;-79
2021/10/07 06:46:44;;;;;;;3.58;1.52;;;;;;;10.82;100.00;98028.81;5029395;28;20466;-78
2021/10/07 06:49:10;;;;;;;4.63;1.73;;;;;;;10.94;100.00;98023.72;5030422;28;20036;-78
2021/10/07 06:51:35;;;;;;;6.47;1.92;;;;;;;10.97;100.00;98023.94;5030349;28;20049;-78
2021/10/07 06:54:01;;;;;;;3.67;1.63;;;;;;;11.01;100.00;98013.22;5030305;28;20549;-78
2021/10/07 06:56:27;;;;;;;6.88;1.80;;;;;;;11.02;100.00;98026.63;5030817;28;20028;-78
2021/10/07 06:58:53;;;;;;;4.10;2.08;;;;;;;11.10;100.00;98025.13;5030325;28;20120;-77
2021/10/07 07:01:24;;;;;;;3.83;1.60;;;;;;;11.22;94.74;98030.97;5030343;28;20121;-78
2021/10/07 07:03:52;;;;;;;4.25;1.42;;;;;;;11.38;99.87;98034.28;5030225;28;20030;-78
2021/10/07 07:06:18;;;;;;;5.32;1.45;;;;;;;11.38;99.10;98028.78;5030349;28;20025;-78
2021/10/07 07:08:44;;;;;;;4.15;1.48;;;;;;;11.44;99.54;98033.88;5030206;28;20445;-77
2021/10/07 07:11:09;;;;;;;3.00;1.10;;;;;;;11.46;93.42;98028.94;5030193;28;20061;-77
2021/10/07 07:13:35;;;;;;;2.22;0.90;;;;;;;11.66;86.74;98030.50;5029983;28;20087;-78
2021/10/07 07:16:01;;;;;;;1.92;0.85;;;;;;;11.76;88.89;98041.34;5030227;28;20071;-78
2021/10/07 07:18:26;;;;;;;2.38;1.20;;;;;;;11.70;91.62;98037.88;5030420;28;20421;-76
2021/10/07 07:20:52;;;;;;;3.45;1.27;;;;;;;11.72;99.48;98041.13;5030377;28;20049;-78
2021/10/07 07:23:17;;;;;;;6.60;1.67;;;;;;;11.79;99.63;98043.47;5030226;28;20555;-78
2021/10/07 07:25:43;;;;;;;3.45;1.45;;;;;;;11.78;99.22;98056.34;5030285;28;20021;-77
2021/10/07 07:28:08;;;;;;;2.47;1.20;;;;;;;11.65;96.10;98056.31;5032781;28;20032;-77
2021/10/07 07:30:34;;;;;;;4.00;1.20;;;;;;;11.66;92.05;98052.44;5033889;28;20064;-77
2021/10/07 07:33:00;;;;;;;2.88;0.90;;;;;;;11.81;84.39;98042.06;5034112;28;20489;-78
2021/10/07 07:35:29;;;;;;;1.13;0.60;;;;;;;11.83;85.54;98050.00;5034144;28;20036;-76
2021/10/07 07:37:55;;;;;;;2.25;0.40;;;;;;;11.86;85.81;98051.31;5034156;28;20061;-77
2021/10/07 07:40:21;;;;;;;0.90;0.60;;;;;;;11.84;86.23;98070.78;5037107;28;20028;-77
2021/10/07 07:42:46;;;;;;;1.35;0.70;;;;;;;11.80;83.56;98051.41;5038191;28;20029;-78
2021/10/07 07:45:12;;;;;;;1.00;0.50;;;;;;;11.85;82.44;98061.44;5037592;28;20091;-77
2021/10/07 07:47:41;;;;;;;0.75;0.47;;;;;;;11.86;82.87;98073.22;5033917;28;20033;-78
2021/10/07 07:50:08;;;;;;;0.93;0.55;;;;;;;11.85;83.88;98077.06;5033616;28;20064;-79
2021/10/07 07:52:33;;;;;;;0.38;0.38;;;;;;;11.86;81.60;98086.94;5033072;28;20030;-76
2021/10/07 07:54:59;;;;;;;0.63;0.40;;;;;;;11.93;78.81;98090.94;5032812;28;20030;-77
2021/10/07 07:57:24;;;;;;;1.70;0.47;;;;;;;11.86;78.53;98070.50;5033576;28;20140;-78
2021/10/07 07:59:49;;;;;;;0.57;0.40;;;;;;;11.82;79.52;98073.00;5031777;28;20038;-77
2021/10/07 08:02:15;;;;;;;0.73;0.50;;;;;;;11.96;78.70;98078.53;5033384;28;20033;-78
2021/10/07 08:04:42;;;;;;;0.65;0.47;;;;;;;11.96;79.42;98089.50;5033193;28;20026;-77
2021/10/07 08:07:08;;;;;;;0.40;0.30;;;;;;;11.80;79.47;98098.00;5033301;28;20022;-77
2021/10/07 08:09:35;;;;;;;0.40;0.40;;;;;;;11.82;80.66;98087.53;5033098;28;20059;-78
2021/10/07 08:12:00;;;;;;;1.10;0.43;;;;;;;11.76;81.67;98096.13;5033024;28;20033;-78
2021/10/07 08:14:25;;;;;;;1.15;0.50;;;;;;;11.77;79.10;98087.63;5033053;28;20040;-74
2021/10/07 08:16:51;;;;;;;0.68;0.32;;;;;;;11.70;81.75;98098.16;5032758;28;20037;-77
2021/10/07 08:19:16;;;;;;;0.77;0.40;;;;;;;11.50;84.80;98114.88;5033165;28;20033;-76
2021/10/07 08:21:42;;;;;;;0.47;0.30;;;;;;;11.55;81.13;98111.25;5035191;28;20060;-76
2021/10/07 08:24:10;;;;;;;0.30;0.30;;;;;;;11.53;82.07;98102.50;5038453;28;20021;-77
2021/10/07 08:26:36;;;;;;;0.50;0.40;;;;;;;11.38;84.20;98105.47;5042175;28;20030;-76
2021/10/07 08:29:02;;;;;;;1.75;0.70;;;;;;;11.26;85.61;98111.41;5043484;28;20021;-76
2021/10/07 08:31:28;;;;;;;0.65;0.50;;;;;;;11.31;83.91;98111.31;5040093;28;20021;-76
2021/10/07 08:33:54;;;;;;;1.25;0.35;;;;;;;11.31;85.25;98114.06;5040862;28;20466;-74
2021/10/07 08:36:19;;;;;;;0.40;0.40;;;;;;;11.46;82.09;98113.84;5042259;28;20414;-75
2021/10/07 08:38:44;;;;;;;1.40;0.50;;;;;;;11.46;83.12;98113.03;5041724;28;20037;-75
2021/10/07 08:41:12;;;;;;;3.20;0.60;;;;;;;11.43;83.35;98108.16;5040488;28;20029;-74
2021/10/07 08:43:39;;;;;;;1.48;0.60;;;;;;;11.50;84.21;98120.34;5044229;28;20029;-75
2021/10/07 08:46:09;;;;;;;1.27;0.52;;;;;;;11.62;82.94;98101.53;5042137;28;20021;-76
2021/10/07 08:48:34;;;;;;;3.92;0.80;;;;;;;11.62;83.39;98101.53;5042450;28;20039;-77
2021/10/07 08:51:00;;;;;;;0.68;0.63;;;;;;;11.67;82.76;98106.94;5042696;28;20025;-73
2021/10/07 08:53:25;;;;;;;0.47;0.38;;;;;;;11.79;81.70;98110.06;5040668;28;20021;-78
2021/10/07 08:55:51;;;;;;;0.73;0.47;;;;;;;11.87;79.08;98096.78;5042206;28;20031;-76
2021/10/07 08:58:16;;;;;;;0.80;0.43;;;;;;;11.92;79.57;98103.00;5042297;28;20100;-76
2021/10/07 09:00:41;;;;;;;0.70;0.47;;;;;;;11.99;79.42;98097.13;5040343;28;20542;-76
2021/10/07 09:03:24;;;;;;;0.73;0.50;;;;;;;12.14;79.46;98096.84;5042394;28;20013;-74
2021/10/07 09:06:09;;;;;;;0.60;0.50;;;;;;;12.20;79.23;98095.66;5041916;28;20032;-77
2021/10/07 09:08:46;;;;;;;1.23;0.60;;;;;;;12.30;78.75;98117.41;5040539;28;20482;-73
2021/10/07 09:11:28;;;;;;;0.70;0.50;;;;;;;12.36;78.62;98124.44;5039217;28;20026;-73
2021/10/07 09:14:02;;;;;;;1.10;0.57;;;;;;;12.39;79.62;98123.00;5036464;28;20469;-74
2021/10/07 09:16:33;;;;;;;1.52;0.60;;;;;;;12.39;77.52;98125.75;5038053;28;20024;-77
2021/10/07 09:19:20;;;;;;;0.82;0.50;;;;;;;12.47;77.20;98136.81;5043125;28;20107;-78
2021/10/07 09:21:48;;;;;;;0.90;0.52;;;;;;;12.27;75.70;98124.31;5042557;28;20055;-77
2021/10/07 09:24:35;;;;;;;3.00;0.75;;;;;;;12.37;75.46;98141.69;5041786;28;20056;-75
2021/10/07 09:27:21;;;;;;;1.13;0.40;;;;;;;12.21;75.76;98114.56;5042049;28;20078;-74
2021/10/07 09:29:46;;;;;;;;;;;;;;;12.28;76.61;98119.63;5044194;28;20086;-74
2021/10/07 09:32:12;;;;;;;1.00;0.67;;;;;;;12.25;77.46;98115.56;5051578;28;19920;-75
2021/10/07 09:34:46;;;;;;;1.10;0.60;;;;;;;12.37;77.86;98117.84;5060696;28;20286;-79
2021/10/07 09:37:30;;;;;;;1.98;0.80;;;;;;;12.64;77.08;98112.34;5061684;28;20036;-84
2021/10/07 09:39:59;;;;;;;0.82;0.50;;;;;;;12.67;74.70;98114.50;5056096;28;20021;-74
2021/10/07 09:42:30;;;;;;;1.23;0.63;;;;;;;12.73;75.89;98110.53;5044848;28;20025;-74
2021/10/07 09:45:07;;;;;;;0.88;0.60;;;;;;;12.75;73.88;98100.03;5039375;28;20037;-77
2021/10/07 09:47:55;;;;;;;0.95;0.43;;;;;;;12.87;72.57;98105.03;5038929;28;20031;-77
2021/10/07 09:50:37;;;;;;;1.23;0.70;;;;;;;12.85;73.27;98112.75;5036791;28;20033;-77
2021/10/07 09:53:06;;;;;;;1.50;0.73;;;;;;;12.79;72.63;98117.53;5040533;28;20079;-76
2021/10/07 09:55:38;;;;;;;6.22;0.80;;;;;;;12.72;73.66;98124.53;5040906;28;20039;-77
2021/10/07 09:58:12;;;;;;;1.98;0.47;;;;;;;12.74;71.77;98125.06;5040512;28;20029;-76
2021/10/07 10:00:41;;;;;;;0.93;0.55;;;;;;;12.72;73.66;98130.84;5036711;28;20052;-76
2021/10/07 10:03:09;;;;;;;0.30;0.30;;;;;;;12.64;70.63;98128.81;5039499;28;20104;-76
2021/10/07 10:05:36;;;;;;;0.47;0.30;;;;;;;12.57;71.47;98131.16;5038791;28;20136;-78
2021/10/07 10:08:04;;;;;;;0.63;0.40;;;;;;;12.55;71.60;98136.13;5040189;28;20486;-75
2021/10/07 10:10:29;;;;;;;0.40;0.28;;;;;;;12.57;71.78;98122.91;5040735;28;20080;-77
2021/10/07 10:12:55;;;;;;;3.00;0.70;;;;;;;12.54;72.53;98123.53;5038370;28;20025;-76
2021/10/07 10:15:21;;;;;;;0.95;0.50;;;;;;;12.53;73.49;98121.09;5040889;28;20044;-75
2021/10/07 10:17:49;;;;;;;0.73;0.57;;;;;;;12.49;73.76;98104.44;5043233;28;20025;-78
2021/10/07 10:20:28;;;;;;;0.38;0.38;;;;;;;12.58;72.47;98119.06;5042016;28;20498;-76
2021/10/07 10:23:05;;;;;;;2.25;0.60;;;;;;;12.57;73.35;98128.41;5041321;28;20092;-76
2021/10/07 10:25:49;;;;;;;0.55;0.40;;;;;;;12.58;73.35;98135.53;5039197;28;20075;-77
2021/10/07 10:28:15;;;;;;;2.40;0.70;;;;;;;12.53;73.17;98118.34;5030962;28;20165;-78
2021/10/07 10:30:45;;;;;;;0.68;0.30;;;;;;;12.66;73.35;98140.31;5030871;28;20026;-76
2021/10/07 10:33:29;;;;;;;1.17;0.60;;;;;;;12.69;73.54;98125.97;5029824;28;20116;-76
2021/10/07 10:35:54;;;;;;;1.45;0.60;;;;;;;12.72;73.77;98136.34;5030031;28;20414;-77
2021/10/07 10:38:20;;;;;;;1.63;0.50;;;;;;;12.75;73.17;98141.22;5030522;28;20540;-75
2021/10/07 10:40:46;;;;;;;1.00;0.60;;;;;;;12.68;73.77;98129.84;5030690;28;20458;-76
2021/10/07 10:43:17;;;;;;;1.38;0.63;;;;;;;12.79;72.99;98144.16;5029013;28;20112;-76
2021/10/07 10:45:52;;;;;;;1.05;0.70;;;;;;;12.78;72.56;98146.09;5030580;28;20087;-77
2021/10/07 10:48:51;;;;;;;3.20;0.60;;;;;;;12.76;73.33;98170.31;5030223;28;20037;-76
2021/10/07 10:51:17;;;;;;;4.35;0.63;;;;;;;12.74;74.58;98149.78;5018389;28;20095;-79
2021/10/07 10:54:11;;;;;;;1.08;0.40;;;;;;;12.70;74.08;98127.59;5030262;28;20060;-75
2021/10/07 10:56:57;;;;;;;0.75;0.40;;;;;;;12.71;74.91;98139.41;5029190;28;20381;-77
2021/10/07 10:59:24;;;;;;;1.02;0.50;;;;;;;12.60;75.04;98122.31;5030307;28;20128;-77
2021/10/07 11:02:15;;;;;;;1.00;0.55;;;;;;;12.69;75.31;98139.69;5032179;28;20065;-75
2021/10/07 11:04:44;;;;;;;1.52;0.68;;;;;;;12.66;75.09;98148.53;5034133;28;20032;-75
2021/10/07 11:07:21;;;;;;;1.77;0.50;;;;;;;12.69;75.41;98142.44;5034048;28;20026;-77
2021/10/07 11:09:58;;;;;;;0.80;0.50;;;;;;;12.70;76.00;98135.84;5034148;28;20021;-77
2021/10/07 11:12:31;;;;;;;1.02;0.50;;;;;;;12.69;75.40;98131.47;5034183;28;20108;-75
2021/10/07 11:14:57;;;;;;;3.15;0.40;;;;;;;12.70;75.81;98133.09;5034181;28;20029;-76
2021/10/07 11:17:25;;;;;;;0.60;0.50;;;;;;;12.80;75.72;98132.91;5033843;28;20409;-77
2021/10/07 11:19:50;;;;;;;0.88;0.55;;;;;;;12.81;75.96;98144.69;5032741;28;20557;-76
2021/10/07 11:22:16;;;;;;;0.40;0.40;;;;;;;12.86;75.59;98142.66;5033821;28;20124;-77
2021/10/07 11:24:53;;;;;;;1.25;0.60;;;;;;;12.91;75.75;98144.47;5033721;28;20029;-77
2021/10/07 11:27:54;;;;;;;0.43;0.43;;;;;;;12.97;74.98;98140.50;5034264;28;20129;-77
2021/10/07 11:30:21;;;;;;;0.50;0.40;;;;;;;12.95;74.82;98134.50;4995042;28;20076;-77
2021/10/07 11:32:47;;;;;;;0.70;0.60;;;;;;;13.09;75.17;98137.28;5029482;28;20068;-75
2021/10/07 11:35:15;;;;;;;0.57;0.50;;;;;;;13.05;74.84;98139.81;5033981;28;20386;-77
2021/10/07 11:37:53;;;;;;;3.13;0.60;;;;;;;13.19;75.22;98148.03;5033909;28;20068;-76